Terminal Aerodrome Forecast
Issued by NWS Melbourne, FL

Home | Current Version | Previous Version | Text Only | Print | Product List | Glossary On
Versions: 1 2 3 4 5 6 7 8 9 10 11 12 13 14 15 16 17
000
FTUS42 KMLB 182300
TAFDAB
TAF
KDAB 182339Z 1900/1924 17008KT P6SM VCSH SCT020 BKN040
      TEMPO 1900/1902 6SM -SHRA BKN035
     FM190800 18008KT P6SM VCSH BKN030 OVC050
     FM191500 23012KT P6SM VCSH BKN025 OVC040=

USA.gov is the U.S. government's official web portal to all federal, state and local government web resources and services.